createdAt,value
2023-03-04T00:03:32.618Z,102397.63
2023-03-04T00:08:38.134Z,102399.28
2023-03-04T00:13:39.853Z,102392.81
2023-03-04T00:18:41.710Z,102404.16
2023-03-04T00:23:43.751Z,102391.00
2023-03-04T00:28:50.001Z,102389.22
2023-03-04T00:33:56.661Z,102386.56
2023-03-04T00:39:00.636Z,102379.44
2023-03-04T00:44:07.063Z,102375.19
2023-03-04T00:49:08.756Z,102369.03
2023-03-04T00:54:12.796Z,102373.38
2023-03-04T00:59:14.489Z,102368.06
2023-03-04T01:04:16.144Z,102364.59
2023-03-04T01:09:20.099Z,102353.97
2023-03-04T01:14:24.233Z,102353.31
2023-03-04T01:19:26.060Z,102348.25
2023-03-04T01:24:29.926Z,102336.03
2023-03-04T01:29:33.858Z,102337.84
2023-03-04T01:34:37.329Z,102329.88
2023-03-04T01:39:41.826Z,102321.91
2023-03-04T01:44:44.197Z,102299.84
2023-03-04T01:49:48.921Z,102304.31
2023-03-04T01:54:51.813Z,102297.94
2023-03-04T02:00:24.114Z,102294.31
2023-03-04T02:05:40.223Z,102283.69
2023-03-04T02:10:44.831Z,102276.69
2023-03-04T02:15:46.761Z,102266.06
2023-03-04T02:20:54.656Z,102266.91
2023-03-04T02:26:15.973Z,102252.81
2023-03-04T02:31:24.312Z,102252.81
2023-03-04T02:36:29.505Z,102246.66
2023-03-04T02:41:37.055Z,102254.38
2023-03-04T02:46:41.222Z,102246.53
2023-03-04T02:51:44.258Z,102251.72
2023-03-04T02:56:50.485Z,102249.81
2023-03-04T03:01:55.569Z,102243.53
2023-03-04T03:06:57.552Z,102244.88
2023-03-04T03:12:00.447Z,102237.91
2023-03-04T03:17:03.470Z,102226.41
2023-03-04T03:22:08.772Z,102226.66
2023-03-04T03:27:10.510Z,102218.19
2023-03-04T03:32:14.741Z,102217.47
2023-03-04T03:37:16.790Z,102214.63
2023-03-04T03:42:20.946Z,102215.81
2023-03-04T03:47:28.088Z,102210.41
2023-03-04T03:52:29.819Z,102200.75
2023-03-04T03:57:38.424Z,102214.47
2023-03-04T04:02:43.103Z,102198.78
2023-03-04T04:07:48.019Z,102193.06
2023-03-04T04:12:49.700Z,102186.19
2023-03-04T04:17:53.627Z,102178.03
2023-03-04T04:22:59.940Z,102186.19
2023-03-04T04:28:01.693Z,102187.38
2023-03-04T04:33:04.860Z,102188.44
2023-03-04T04:38:11.480Z,102194.59
2023-03-04T04:43:15.445Z,102193.72
2023-03-04T04:48:17.208Z,102187.44
2023-03-04T04:53:19.000Z,102185.75
2023-03-04T04:58:20.707Z,102192.97
2023-03-04T05:03:27.149Z,102181.63
2023-03-04T05:08:31.094Z,102182.34
2023-03-04T05:13:35.712Z,102178.03
2023-03-04T05:18:37.608Z,102178.97
2023-03-04T05:23:43.479Z,102179.22
2023-03-04T05:28:45.515Z,102183.78
2023-03-04T05:33:49.552Z,102176.91
2023-03-04T05:38:53.518Z,102189.53
2023-03-04T05:43:57.410Z,102193.38
2023-03-04T05:49:01.453Z,102174.94
2023-03-04T05:54:05.532Z,102188.13
2023-03-04T05:59:09.438Z,102190.47
2023-03-04T06:04:13.272Z,102190.34
2023-03-04T06:09:15.021Z,102177.00
2023-03-04T06:14:16.944Z,102183.88
2023-03-04T06:19:21.152Z,102180.25
2023-03-04T06:24:22.938Z,102190.22
2023-03-04T06:29:29.461Z,102185.50
2023-03-04T06:34:31.422Z,102187.72
2023-03-04T06:39:35.654Z,102195.22
2023-03-04T06:44:37.354Z,102210.81
2023-03-04T06:49:41.279Z,102206.22
2023-03-04T06:54:42.978Z,102219.16
2023-03-04T06:59:44.684Z,102223.28
2023-03-04T07:04:48.772Z,102215.31
2023-03-04T07:09:50.510Z,102221.25
2023-03-04T07:14:59.431Z,102226.44
2023-03-04T07:20:01.143Z,102235.88
2023-03-04T07:25:06.005Z,102233.22
2023-03-04T07:30:11.216Z,102239.25
2023-03-04T07:35:12.994Z,102242.75
2023-03-04T07:40:19.593Z,102247.94
2023-03-04T07:45:24.121Z,102238.06
2023-03-04T07:50:28.351Z,102247.59
2023-03-04T07:55:31.602Z,102246.41
2023-03-04T08:00:34.115Z,102250.31
2023-03-04T08:05:39.591Z,102259.00
2023-03-04T08:10:43.618Z,102261.16
2023-03-04T08:15:45.341Z,102262.97
2023-03-04T08:20:49.327Z,102263.56
2023-03-04T08:25:54.140Z,102264.44
2023-03-04T08:30:58.206Z,102268.28
2023-03-04T08:35:59.974Z,102263.81
2023-03-04T08:41:04.445Z,102270.00
2023-03-04T08:46:08.846Z,102270.53
2023-03-04T08:51:15.354Z,102274.72
2023-03-04T08:56:17.823Z,102276.63
2023-03-04T09:01:25.584Z,102285.88
2023-03-04T09:06:30.274Z,102293.00
2023-03-04T09:11:32.057Z,102287.44
2023-03-04T09:16:36.351Z,102280.94
2023-03-04T09:21:40.423Z,102285.34
2023-03-04T09:26:45.903Z,102285.28
2023-03-04T09:31:49.824Z,102279.31
2023-03-04T09:36:54.146Z,102279.69
2023-03-04T09:42:09.022Z,102294.75
2023-03-04T09:47:28.705Z,102295.25
2023-03-04T09:52:55.019Z,102280.84
2023-03-04T09:58:09.075Z,102294.03
2023-03-04T10:03:20.347Z,102291.34
2023-03-04T10:08:33.316Z,102287.00
2023-03-04T10:13:55.687Z,102279.75
2023-03-04T10:19:19.321Z,102276.72
2023-03-04T10:24:25.100Z,102272.56
2023-03-04T10:29:28.896Z,102287.72
2023-03-04T10:34:30.816Z,102287.28
2023-03-04T10:39:44.010Z,102285.72
2023-03-04T10:45:00.304Z,102273.13
2023-03-04T10:50:07.024Z,102276.91
2023-03-04T10:55:18.057Z,102276.97
2023-03-04T11:00:26.469Z,102270.81
2023-03-04T11:05:36.582Z,102290.28
2023-03-04T11:10:45.999Z,102280.53
2023-03-04T11:15:58.214Z,102279.03
2023-03-04T11:21:02.435Z,102280.00
2023-03-04T11:26:39.954Z,102273.97
2023-03-04T11:31:55.780Z,102262.38
2023-03-04T11:37:21.485Z,102256.13
2023-03-04T11:42:43.019Z,102256.97
2023-03-04T11:48:03.199Z,102245.50
2023-03-04T11:53:12.527Z,102247.59
2023-03-04T11:58:43.883Z,102268.38
2023-03-04T12:04:09.325Z,102255.56
2023-03-04T12:09:21.334Z,102253.34
2023-03-04T12:14:28.653Z,102239.34
2023-03-04T12:20:30.273Z,102225.25
2023-03-04T12:25:39.140Z,102230.38
2023-03-04T12:30:58.718Z,102219.47
2023-03-04T12:36:02.935Z,102212.97
2023-03-04T12:41:37.403Z,102208.72
2023-03-04T12:47:00.104Z,102217.94
2023-03-04T12:52:39.540Z,102224.53
2023-03-04T12:57:42.220Z,102217.75
2023-03-04T13:03:06.546Z,102220.41
2023-03-04T13:08:13.783Z,102221.16
2023-03-04T13:13:40.657Z,102210.75
2023-03-04T13:18:45.163Z,102204.41
2023-03-04T13:23:49.074Z,102217.50
2023-03-04T13:29:12.997Z,102205.31
2023-03-04T13:34:48.976Z,102203.53
2023-03-04T13:40:27.507Z,102192.50
2023-03-04T13:45:47.252Z,102196.00
2023-03-04T13:50:49.652Z,102203.28
2023-03-04T13:56:31.343Z,102217.53
2023-03-04T14:01:49.310Z,102209.59
2023-03-04T14:06:53.133Z,102207.84
2023-03-04T14:12:05.781Z,102202.38
2023-03-04T14:17:17.904Z,102205.38
2023-03-04T14:22:28.007Z,102191.28
2023-03-04T14:27:33.093Z,102192.00
2023-03-04T14:32:35.064Z,102187.09
2023-03-04T14:37:50.047Z,102192.50
2023-03-04T14:42:59.726Z,102188.28
2023-03-04T14:48:05.645Z,102194.97
2023-03-04T14:53:07.357Z,102206.59
2023-03-04T14:58:20.072Z,102193.97
2023-03-04T15:03:34.442Z,102193.72
2023-03-04T15:08:38.082Z,102172.09
2023-03-04T15:13:45.887Z,102181.78
2023-03-04T15:19:20.872Z,102177.63
2023-03-04T15:24:22.630Z,102174.88
2023-03-04T15:29:28.916Z,102165.31
2023-03-04T15:34:31.488Z,102174.59
2023-03-04T15:39:35.588Z,102167.53
2023-03-04T15:44:42.123Z,102179.94
2023-03-04T15:49:49.498Z,102174.09
2023-03-04T15:54:55.572Z,102165.94
2023-03-04T15:59:58.119Z,102166.94
2023-03-04T16:05:05.450Z,102163.53
2023-03-04T16:10:12.686Z,102167.50
2023-03-04T16:15:30.247Z,102160.50
2023-03-04T16:20:37.654Z,102168.09
2023-03-04T16:25:42.732Z,102163.28
2023-03-04T16:30:44.806Z,102165.28
2023-03-04T16:35:52.306Z,102161.00
2023-03-04T16:40:58.222Z,102157.06
2023-03-04T16:46:03.167Z,102154.41
2023-03-04T16:51:15.288Z,102155.59
2023-03-04T16:56:20.542Z,102150.84
2023-03-04T17:01:27.165Z,102164.84
2023-03-04T17:06:28.984Z,102166.00
2023-03-04T17:11:33.702Z,102155.09
2023-03-04T17:16:36.077Z,102145.66
2023-03-04T17:21:45.175Z,102148.22
2023-03-04T17:26:53.631Z,102131.06
2023-03-04T17:31:55.523Z,102145.16
2023-03-04T17:36:59.369Z,102139.56
2023-03-04T17:42:06.135Z,102144.44
2023-03-04T17:47:10.490Z,102140.72
2023-03-04T17:52:14.788Z,102134.69
2023-03-04T17:57:21.137Z,102128.75
2023-03-04T18:02:23.311Z,102138.28
2023-03-04T18:07:25.112Z,102146.63
2023-03-04T18:12:26.847Z,102148.97
2023-03-04T18:17:28.607Z,102165.28
2023-03-04T18:22:31.209Z,102157.41
2023-03-04T18:27:35.559Z,102139.72
2023-03-04T18:32:51.024Z,102128.31
2023-03-04T18:37:55.801Z,102139.06
2023-03-04T18:43:00.200Z,102134.81
2023-03-04T18:48:05.309Z,102139.56
2023-03-04T18:53:06.990Z,102141.69
2023-03-04T18:58:08.734Z,102124.84
2023-03-04T19:03:12.211Z,102132.09
2023-03-04T19:08:17.469Z,102141.91
2023-03-04T19:13:21.898Z,102136.97
2023-03-04T19:18:28.317Z,102137.50
2023-03-04T19:23:30.459Z,102135.53
2023-03-04T19:28:34.998Z,102126.22
2023-03-04T19:33:42.389Z,102132.47
2023-03-04T19:38:44.157Z,102118.25
2023-03-04T19:43:46.090Z,102128.19
2023-03-04T19:48:52.763Z,102126.50
2023-03-04T19:53:56.661Z,102129.13
2023-03-04T19:59:06.625Z,102120.06
2023-03-04T20:04:11.381Z,102129.09
2023-03-04T20:09:18.926Z,102123.34
2023-03-04T20:14:20.624Z,102120.38
2023-03-04T20:19:22.420Z,102115.06
2023-03-04T20:24:29.035Z,102120.28
2023-03-04T20:29:33.081Z,102125.25
2023-03-04T20:34:36.901Z,102111.72
2023-03-04T20:39:38.703Z,102136.06
2023-03-04T20:44:40.462Z,102124.28
2023-03-04T20:49:42.203Z,102119.06
2023-03-04T20:54:44.160Z,102111.09
2023-03-04T20:59:48.194Z,102109.91
2023-03-04T21:04:50.126Z,102099.34
2023-03-04T21:09:51.902Z,102089.97
2023-03-04T21:14:55.877Z,102087.56
2023-03-04T21:19:57.634Z,102074.59
2023-03-04T21:25:01.574Z,102069.84
2023-03-04T21:30:03.436Z,102072.00
2023-03-04T21:35:05.592Z,102070.88
2023-03-04T21:40:11.053Z,102061.97
2023-03-04T21:45:12.763Z,102059.25
2023-03-04T21:50:17.254Z,102041.69
2023-03-04T21:55:21.559Z,102041.94
2023-03-04T22:00:23.346Z,102039.16
2023-03-04T22:05:25.100Z,102040.41
2023-03-04T22:10:31.500Z,102035.44
2023-03-04T22:15:33.213Z,102035.22
2023-03-04T22:20:39.098Z,102029.84
2023-03-04T22:25:41.486Z,102029.72
2023-03-04T22:30:45.436Z,102023.13
2023-03-04T22:35:47.164Z,102020.94
2023-03-04T22:40:51.832Z,102016.09
2023-03-04T22:45:54.535Z,102012.94
2023-03-04T22:50:58.479Z,101998.81
2023-03-04T22:56:00.148Z,102007.88
2023-03-04T23:01:03.226Z,101996.31
2023-03-04T23:06:15.360Z,101988.09
2023-03-04T23:11:26.440Z,101990.22
2023-03-04T23:16:33.051Z,101985.50
2023-03-04T23:21:38.113Z,102006.94
2023-03-04T23:26:40.927Z,102002.28
2023-03-04T23:31:44.232Z,101986.16
2023-03-04T23:36:45.928Z,101981.72
2023-03-04T23:41:49.710Z,101985.25
2023-03-04T23:46:51.387Z,101980.53
2023-03-04T23:51:55.311Z,101965.97
2023-03-04T23:57:02.125Z,101968.41
